Time;durP1;ratioP1;P1;durP2;ratioP2;P2;SDS_P1;SDS_P2;PMS_P1;PMS_P2;Temp;Humidity;BMP_temperature;BMP_pressure;BME280_temperature;BME280_humidity;BME280_pressure;Samples;Min_cycle;Max_cycle;Signal;HPM_P1;HPM_P2
2021/08/06 00:02:05;;;;;;;11.20;8.27;;;;;;;;;;5112171;27;20031;-73
2021/08/06 00:04:31;;;;;;;18.33;7.95;;;;;;;;;;5111655;28;20506;-73
2021/08/06 00:06:58;;;;;;;13.70;8.23;;;;;;;;;;5111751;28;20505;-75
2021/08/06 00:09:24;;;;;;;12.02;7.45;;;;;;;;;;5111265;28;20034;-73
2021/08/06 00:11:51;;;;;;;11.57;7.60;;;;;;;;;;5121766;27;20027;-73
2021/08/06 00:14:18;;;;;;;11.80;7.45;;;;;;;;;;5111234;27;20033;-72
2021/08/06 00:16:44;;;;;;;12.50;8.27;;;;;;;;;;5112897;27;20024;-74
2021/08/06 00:19:10;;;;;;;13.40;7.80;;;;;;;;;;5112251;28;20035;-73
2021/08/06 00:21:36;;;;;;;11.77;8.23;;;;;;;;;;5114690;27;20019;-73
2021/08/06 00:24:02;;;;;;;11.07;7.43;;;;;;;;;;5109044;28;20027;-73
2021/08/06 00:26:28;;;;;;;10.38;7.18;;;;;;;;;;5111710;27;20406;-74
2021/08/06 00:28:54;;;;;;;14.13;8.30;;;;;;;;;;5111507;28;20482;-74
2021/08/06 00:31:20;;;;;;;14.45;8.02;;;;;;;;;;5120864;27;20030;-72
2021/08/06 00:33:46;;;;;;;11.40;8.20;;;;;;;;;;5111509;28;20020;-74
2021/08/06 00:36:12;;;;;;;15.00;8.40;;;;;;;;;;5107872;28;20244;-74
2021/08/06 00:38:38;;;;;;;12.15;8.23;;;;;;;;;;5112162;27;20027;-72
2021/08/06 00:41:04;;;;;;;14.30;8.77;;;;;;;;;;5109400;27;20129;-72
2021/08/06 00:43:31;;;;;;;12.18;9.07;;;;;;;;;;5112404;28;20020;-71
2021/08/06 00:45:58;;;;;;;11.40;8.75;;;;;;;;;;5115900;27;20105;-74
2021/08/06 00:48:25;;;;;;;11.73;8.27;;;;;;;;;;5112569;28;20019;-72
2021/08/06 00:50:51;;;;;;;12.23;8.85;;;;;;;;;;5115831;27;20072;-73
2021/08/06 00:53:17;;;;;;;12.63;9.23;;;;;;;;;;5120489;27;20051;-73
2021/08/06 00:55:43;;;;;;;11.95;8.23;;;;;;;;;;5109969;28;20023;-73
2021/08/06 00:58:12;;;;;;;11.15;7.80;;;;;;;;;;5104559;28;20040;-72
2021/08/06 01:00:38;;;;;;;11.98;8.23;;;;;;;;;;5108316;27;20039;-72
2021/08/06 01:03:22;;;;;;;11.02;8.15;;;;;;;;;;5109982;28;20043;-73
2021/08/06 01:05:52;;;;;;;12.38;8.40;;;;;;;;;;5105665;27;20031;-73
2021/08/06 01:08:21;;;;;;;12.48;7.45;;;;;;;;;;5110361;27;20112;-72
2021/08/06 01:10:54;;;;;;;10.73;8.43;;;;;;;;;;5111936;27;20113;-73
2021/08/06 01:13:26;;;;;;;12.25;7.70;;;;;;;;;;5111807;27;20023;-73
2021/08/06 01:15:54;;;;;;;12.32;8.23;;;;;;;;;;5109706;28;20023;-73
2021/08/06 01:18:20;;;;;;;11.32;8.27;;;;;;;;;;5111301;28;20055;-73
2021/08/06 01:20:57;;;;;;;11.88;8.48;;;;;;;;;;5110919;27;20028;-71
2021/08/06 01:23:27;;;;;;;13.73;9.07;;;;;;;;;;5112621;27;20028;-72
2021/08/06 01:25:58;;;;;;;8.43;7.28;;;;;;;;;;5107926;28;20059;-71
2021/08/06 01:28:27;;;;;;;11.63;7.30;;;;;;;;;;5113223;27;20043;-73
2021/08/06 01:30:53;;;;;;;11.38;7.47;;;;;;;;;;5126867;27;20111;-73
2021/08/06 01:33:19;;;;;;;20.15;7.72;;;;;;;;;;5121285;27;20030;-73
2021/08/06 01:35:46;;;;;;;10.57;7.90;;;;;;;;;;5104336;28;20057;-74
2021/08/06 01:38:13;;;;;;;11.30;7.47;;;;;;;;;;5104950;28;20513;-72
2021/08/06 01:40:58;;;;;;;8.50;6.07;;;;;;;;;;5111742;27;20019;-72
2021/08/06 01:43:42;;;;;;;8.00;7.05;;;;;;;;;;5111319;27;20031;-73
2021/08/06 01:46:13;;;;;;;11.57;6.72;;;;;;;;;;5124191;27;20032;-71
2021/08/06 01:48:41;;;;;;;12.18;7.22;;;;;;;;;;5111231;27;20020;-72
2021/08/06 01:51:07;;;;;;;11.18;7.05;;;;;;;;;;5116169;27;20080;-71
2021/08/06 01:53:36;;;;;;;10.63;7.32;;;;;;;;;;5111431;27;20058;-71
2021/08/06 01:56:04;;;;;;;10.68;7.28;;;;;;;;;;5108338;28;20019;-70
2021/08/06 01:58:31;;;;;;;9.90;7.97;;;;;;;;;;5111172;28;20019;-72
2021/08/06 02:00:58;;;;;;;11.25;8.52;;;;;;;;;;5107890;28;20031;-72
2021/08/06 02:03:24;;;;;;;13.00;7.68;;;;;;;;;;5101092;28;20076;-71
2021/08/06 02:05:54;;;;;;;12.48;8.25;;;;;;;;;;5111833;28;20470;-72
2021/08/06 02:08:20;;;;;;;11.93;7.30;;;;;;;;;;5112999;28;20027;-72
2021/08/06 02:10:47;;;;;;;12.07;6.90;;;;;;;;;;5120601;27;20030;-72
2021/08/06 02:13:13;;;;;;;17.95;8.52;;;;;;;;;;5110181;28;20039;-72
2021/08/06 02:15:43;;;;;;;11.70;7.13;;;;;;;;;;5112329;28;20573;-71
2021/08/06 02:18:16;;;;;;;11.05;6.13;;;;;;;;;;5110962;28;20588;-72
2021/08/06 02:20:42;;;;;;;14.68;5.85;;;;;;;;;;5108990;28;20028;-71
2021/08/06 02:23:08;;;;;;;11.23;6.70;;;;;;;;;;5109534;28;20132;-71
2021/08/06 02:25:35;;;;;;;13.18;6.80;;;;;;;;;;5108668;28;20032;-72
2021/08/06 02:28:02;;;;;;;9.27;6.72;;;;;;;;;;5109262;28;20024;-72
2021/08/06 02:30:30;;;;;;;14.05;6.20;;;;;;;;;;5121167;28;20054;-72
2021/08/06 02:32:56;;;;;;;15.10;7.18;;;;;;;;;;5102794;28;20039;-72
2021/08/06 02:35:22;;;;;;;10.73;6.35;;;;;;;;;;5107361;28;20019;-72
2021/08/06 02:37:50;;;;;;;21.20;9.48;;;;;;;;;;5100445;28;20110;-72
2021/08/06 02:40:16;;;;;;;10.55;6.30;;;;;;;;;;5109775;28;20170;-71
2021/08/06 02:42:42;;;;;;;10.77;6.63;;;;;;;;;;5114924;28;20024;-72
2021/08/06 02:45:09;;;;;;;15.05;7.43;;;;;;;;;;5108974;28;20036;-73
2021/08/06 02:47:35;;;;;;;11.45;6.85;;;;;;;;;;5109704;28;20103;-71
2021/08/06 02:50:01;;;;;;;13.98;6.43;;;;;;;;;;5109999;28;20026;-72
2021/08/06 02:52:27;;;;;;;16.38;7.63;;;;;;;;;;5111417;28;20043;-73
2021/08/06 02:54:53;;;;;;;14.77;7.75;;;;;;;;;;5119011;27;20023;-73
2021/08/06 02:57:19;;;;;;;17.02;7.78;;;;;;;;;;5113126;28;20042;-72
2021/08/06 02:59:45;;;;;;;15.00;7.13;;;;;;;;;;5115591;27;20106;-72
2021/08/06 03:02:11;;;;;;;14.38;6.55;;;;;;;;;;5112265;27;20028;-71
2021/08/06 03:04:37;;;;;;;16.13;7.28;;;;;;;;;;5111714;28;20024;-72
2021/08/06 03:07:04;;;;;;;16.90;6.35;;;;;;;;;;5112634;27;20016;-72
2021/08/06 03:09:30;;;;;;;15.20;7.07;;;;;;;;;;5123303;27;20493;-72
2021/08/06 03:11:56;;;;;;;13.13;6.45;;;;;;;;;;5121727;27;20034;-71
2021/08/06 03:14:22;;;;;;;12.20;6.60;;;;;;;;;;5113587;28;20053;-72
2021/08/06 03:16:48;;;;;;;12.02;7.03;;;;;;;;;;5112962;28;20031;-72
2021/08/06 03:19:14;;;;;;;12.18;7.60;;;;;;;;;;5115504;27;20031;-72
2021/08/06 03:21:40;;;;;;;12.20;7.78;;;;;;;;;;5112868;28;20065;-71
2021/08/06 03:24:06;;;;;;;12.80;7.18;;;;;;;;;;5113326;28;20038;-71
2021/08/06 03:26:32;;;;;;;15.05;7.30;;;;;;;;;;5109086;28;20032;-72
2021/08/06 03:28:58;;;;;;;18.73;9.25;;;;;;;;;;5120684;27;20034;-71
2021/08/06 03:31:24;;;;;;;17.10;8.60;;;;;;;;;;5121911;27;20024;-72
2021/08/06 03:33:50;;;;;;;14.32;7.68;;;;;;;;;;5116433;27;20042;-71
2021/08/06 03:36:16;;;;;;;17.67;8.95;;;;;;;;;;5112022;28;20494;-72
2021/08/06 03:38:43;;;;;;;17.60;7.72;;;;;;;;;;5106214;28;20080;-71
2021/08/06 03:41:09;;;;;;;18.27;7.72;;;;;;;;;;5112899;28;20032;-71
2021/08/06 03:43:35;;;;;;;17.88;8.35;;;;;;;;;;5115167;27;20495;-71
2021/08/06 03:46:02;;;;;;;13.93;8.15;;;;;;;;;;5110573;28;20031;-72
2021/08/06 03:48:28;;;;;;;11.93;8.18;;;;;;;;;;5112556;28;20096;-71
2021/08/06 03:50:54;;;;;;;18.48;8.43;;;;;;;;;;5119860;27;20019;-72
2021/08/06 03:53:20;;;;;;;12.15;7.40;;;;;;;;;;5115736;27;20031;-72
2021/08/06 03:55:46;;;;;;;11.20;7.72;;;;;;;;;;5111827;28;20050;-71
2021/08/06 03:58:12;;;;;;;13.88;7.80;;;;;;;;;;5111264;28;20046;-72
2021/08/06 04:00:39;;;;;;;11.43;7.20;;;;;;;;;;5112326;28;20160;-71
2021/08/06 04:03:09;;;;;;;11.27;7.75;;;;;;;;;;5112534;27;20035;-71
2021/08/06 04:05:35;;;;;;;14.52;8.10;;;;;;;;;;5103800;28;20047;-72
2021/08/06 04:08:05;;;;;;;13.48;6.57;;;;;;;;;;5113446;28;20098;-71
2021/08/06 04:10:31;;;;;;;18.75;8.18;;;;;;;;;;5112026;28;20116;-71
2021/08/06 04:12:58;;;;;;;10.32;7.63;;;;;;;;;;5111582;28;20036;-71
2021/08/06 04:15:24;;;;;;;25.80;8.95;;;;;;;;;;5111439;27;20786;-72
2021/08/06 04:17:50;;;;;;;9.50;7.20;;;;;;;;;;5112777;27;20501;-73
2021/08/06 04:20:16;;;;;;;12.13;7.25;;;;;;;;;;5110848;27;20019;-71
2021/08/06 04:22:42;;;;;;;17.23;7.47;;;;;;;;;;5111624;27;20028;-72
2021/08/06 04:25:09;;;;;;;13.57;8.48;;;;;;;;;;5110058;28;20027;-72
2021/08/06 04:27:35;;;;;;;20.33;8.60;;;;;;;;;;5114398;27;20034;-71
2021/08/06 04:30:01;;;;;;;15.65;8.52;;;;;;;;;;5116826;27;20214;-72
2021/08/06 04:32:27;;;;;;;17.27;8.27;;;;;;;;;;5117802;27;21670;-71
2021/08/06 04:34:53;;;;;;;17.70;8.82;;;;;;;;;;5110853;28;20114;-72
2021/08/06 04:37:19;;;;;;;11.85;8.38;;;;;;;;;;5113954;27;21615;-72
2021/08/06 04:39:46;;;;;;;17.88;8.95;;;;;;;;;;5112289;28;20027;-71
2021/08/06 04:42:12;;;;;;;18.25;8.88;;;;;;;;;;5117254;27;20102;-71
2021/08/06 04:44:38;;;;;;;15.90;8.98;;;;;;;;;;5112167;28;20043;-71
2021/08/06 04:47:05;;;;;;;15.68;8.48;;;;;;;;;;5109613;28;20043;-72
2021/08/06 04:49:31;;;;;;;19.17;9.38;;;;;;;;;;5119125;27;20028;-72
2021/08/06 04:51:57;;;;;;;22.70;9.38;;;;;;;;;;5110615;28;20031;-71
2021/08/06 04:54:23;;;;;;;17.75;9.70;;;;;;;;;;5110545;28;20023;-71
2021/08/06 04:56:49;;;;;;;15.40;7.97;;;;;;;;;;5106813;28;20115;-70
2021/08/06 04:59:15;;;;;;;21.88;9.75;;;;;;;;;;5119572;27;20031;-71
2021/08/06 05:01:41;;;;;;;19.65;9.48;;;;;;;;;;5114220;27;20076;-71
2021/08/06 05:04:07;;;;;;;13.80;8.75;;;;;;;;;;5112458;27;20034;-72
2021/08/06 05:06:33;;;;;;;18.13;9.68;;;;;;;;;;5112813;27;20043;-73
2021/08/06 05:08:59;;;;;;;18.42;9.52;;;;;;;;;;5108244;28;20055;-69
2021/08/06 05:11:26;;;;;;;16.48;8.52;;;;;;;;;;5112838;27;20026;-71
2021/08/06 05:13:52;;;;;;;25.25;10.02;;;;;;;;;;5111010;28;20031;-72
2021/08/06 05:16:18;;;;;;;21.98;9.70;;;;;;;;;;5109095;28;20024;-71
2021/08/06 05:18:44;;;;;;;18.85;8.95;;;;;;;;;;5111667;28;20028;-71
2021/08/06 05:21:10;;;;;;;20.55;8.73;;;;;;;;;;5111400;28;20110;-70
2021/08/06 05:23:36;;;;;;;20.35;8.68;;;;;;;;;;5112654;27;20136;-71
2021/08/06 05:26:03;;;;;;;16.95;8.63;;;;;;;;;;5107612;28;20032;-70
2021/08/06 05:28:29;;;;;;;20.40;7.95;;;;;;;;;;5110479;28;20099;-71
2021/08/06 05:30:55;;;;;;;34.78;8.38;;;;;;;;;;5089982;28;20031;-71
2021/08/06 05:33:21;;;;;;;19.60;7.85;;;;;;;;;;5112725;27;20034;-73
2021/08/06 05:35:47;;;;;;;18.00;7.97;;;;;;;;;;5109376;27;20031;-73
2021/08/06 05:38:13;;;;;;;25.67;7.65;;;;;;;;;;5108023;28;20568;-73
2021/08/06 05:40:42;;;;;;;23.20;8.15;;;;;;;;;;5110837;27;20019;-73
2021/08/06 05:43:08;;;;;;;23.30;7.63;;;;;;;;;;5108341;27;20637;-72
2021/08/06 05:45:34;;;;;;;22.35;9.20;;;;;;;;;;5107345;28;20020;-73
2021/08/06 05:48:00;;;;;;;25.65;7.90;;;;;;;;;;5107505;28;20015;-72
2021/08/06 05:50:27;;;;;;;25.25;6.55;;;;;;;;;;5108560;27;20044;-72
2021/08/06 05:52:53;;;;;;;17.65;7.80;;;;;;;;;;5106458;27;20027;-71
2021/08/06 05:55:19;;;;;;;21.42;7.45;;;;;;;;;;5098324;27;20050;-71
2021/08/06 05:57:46;;;;;;;17.75;8.35;;;;;;;;;;5106776;27;20027;-72
2021/08/06 06:00:13;;;;;;;21.17;8.27;;;;;;;;;;5105781;27;20015;-72
2021/08/06 06:02:39;;;;;;;25.27;8.80;;;;;;;;;;5106039;28;20016;-71
2021/08/06 06:05:06;;;;;;;19.42;6.93;;;;;;;;;;5108635;28;20082;-71
2021/08/06 06:07:32;;;;;;;20.60;7.07;;;;;;;;;;5103735;28;20066;-71
2021/08/06 06:09:58;;;;;;;26.98;7.70;;;;;;;;;;5107306;28;20101;-72
2021/08/06 06:12:24;;;;;;;18.52;7.80;;;;;;;;;;5107736;27;20030;-71
2021/08/06 06:14:50;;;;;;;19.75;7.40;;;;;;;;;;5100231;28;20031;-71
2021/08/06 06:17:16;;;;;;;17.02;6.35;;;;;;;;;;5104239;28;20039;-72
2021/08/06 06:19:46;;;;;;;19.20;6.60;;;;;;;;;;5102478;28;20135;-71
2021/08/06 06:22:12;;;;;;;14.52;7.03;;;;;;;;;;5100146;28;20114;-72
2021/08/06 06:24:38;;;;;;;17.48;6.80;;;;;;;;;;5103425;28;20020;-72
2021/08/06 06:27:06;;;;;;;19.25;6.60;;;;;;;;;;5102699;28;20066;-71
2021/08/06 06:29:32;;;;;;;24.77;6.60;;;;;;;;;;5103257;27;20016;-72
2021/08/06 06:31:58;;;;;;;19.95;6.70;;;;;;;;;;5111442;27;20030;-72
2021/08/06 06:34:24;;;;;;;18.75;5.95;;;;;;;;;;5113763;27;20018;-71
2021/08/06 06:36:50;;;;;;;20.92;6.57;;;;;;;;;;5112089;27;20081;-72
2021/08/06 06:39:16;;;;;;;15.68;6.35;;;;;;;;;;5108109;27;20036;-70
2021/08/06 06:41:42;;;;;;;19.23;6.15;;;;;;;;;;5113398;27;20023;-70
2021/08/06 06:44:08;;;;;;;17.17;5.88;;;;;;;;;;5108340;27;20042;-69
2021/08/06 06:46:34;;;;;;;20.20;7.13;;;;;;;;;;5104034;27;20028;-68
2021/08/06 06:49:01;;;;;;;15.18;6.30;;;;;;;;;;5109769;27;20031;-70
2021/08/06 06:51:27;;;;;;;18.27;6.53;;;;;;;;;;5106296;27;20020;-69
2021/08/06 06:53:53;;;;;;;16.77;6.35;;;;;;;;;;5112421;27;20046;-70
2021/08/06 06:56:19;;;;;;;13.85;5.60;;;;;;;;;;5110078;27;20035;-69
2021/08/06 06:58:45;;;;;;;14.98;5.88;;;;;;;;;;5111488;27;20023;-70
2021/08/06 07:01:11;;;;;;;19.15;6.22;;;;;;;;;;5108772;27;20051;-69
2021/08/06 07:03:37;;;;;;;21.15;6.20;;;;;;;;;;5107533;27;20035;-68
2021/08/06 07:06:03;;;;;;;15.90;5.78;;;;;;;;;;5106456;27;20043;-69
2021/08/06 07:08:29;;;;;;;18.13;4.55;;;;;;;;;;5110251;27;20020;-71
2021/08/06 07:10:55;;;;;;;11.70;4.05;;;;;;;;;;5108707;27;20036;-69
2021/08/06 07:13:21;;;;;;;20.40;4.15;;;;;;;;;;5116746;27;20046;-70
2021/08/06 07:15:47;;;;;;;9.65;4.22;;;;;;;;;;5110073;27;20097;-67
2021/08/06 07:18:13;;;;;;;12.70;3.63;;;;;;;;;;5109988;27;20036;-69
2021/08/06 07:20:40;;;;;;;14.00;4.07;;;;;;;;;;5112179;27;20121;-68
2021/08/06 07:23:06;;;;;;;19.80;4.88;;;;;;;;;;5110748;27;20124;-69
2021/08/06 07:25:33;;;;;;;11.15;4.68;;;;;;;;;;5109308;27;20019;-70
2021/08/06 07:27:59;;;;;;;10.43;3.92;;;;;;;;;;5108752;27;20075;-69
2021/08/06 07:30:25;;;;;;;17.85;4.15;;;;;;;;;;5109537;27;20102;-68
2021/08/06 07:32:51;;;;;;;12.10;3.60;;;;;;;;;;5107609;27;20031;-68
2021/08/06 07:35:18;;;;;;;12.32;3.53;;;;;;;;;;5100423;27;20185;-69
2021/08/06 07:37:44;;;;;;;15.25;3.58;;;;;;;;;;5102439;27;20032;-69
2021/08/06 07:40:11;;;;;;;10.02;3.42;;;;;;;;;;5092402;27;20035;-69
2021/08/06 07:42:38;;;;;;;11.18;3.90;;;;;;;;;;5116780;27;20074;-68
2021/08/06 07:45:04;;;;;;;9.80;3.10;;;;;;;;;;5111225;27;20117;-70
2021/08/06 07:47:30;;;;;;;11.05;2.97;;;;;;;;;;5114016;27;20518;-69
2021/08/06 07:49:56;;;;;;;13.57;3.78;;;;;;;;;;5112451;27;20032;-67
2021/08/06 07:52:22;;;;;;;13.85;3.33;;;;;;;;;;5112849;27;20019;-67
2021/08/06 07:54:48;;;;;;;12.95;3.00;;;;;;;;;;5109946;27;20028;-68
2021/08/06 07:57:15;;;;;;;8.77;3.50;;;;;;;;;;5112489;27;20080;-69
2021/08/06 07:59:41;;;;;;;8.30;3.10;;;;;;;;;;5110101;27;20047;-68
2021/08/06 08:02:07;;;;;;;8.82;3.50;;;;;;;;;;5110800;27;20028;-68
2021/08/06 08:04:34;;;;;;;11.60;3.22;;;;;;;;;;5114825;27;20077;-69
2021/08/06 08:07:00;;;;;;;13.98;3.38;;;;;;;;;;5105872;27;20024;-70
2021/08/06 08:09:26;;;;;;;13.00;3.47;;;;;;;;;;5107897;27;20038;-70
2021/08/06 08:11:52;;;;;;;7.95;2.65;;;;;;;;;;5108176;27;20578;-70
2021/08/06 08:14:18;;;;;;;9.48;3.03;;;;;;;;;;5108108;27;20067;-70
2021/08/06 08:16:44;;;;;;;9.63;3.55;;;;;;;;;;5105945;27;20502;-70
2021/08/06 08:19:11;;;;;;;7.40;2.63;;;;;;;;;;5101339;27;20039;-70
2021/08/06 08:21:37;;;;;;;8.85;2.95;;;;;;;;;;5107981;27;21102;-72
2021/08/06 08:24:03;;;;;;;8.27;3.70;;;;;;;;;;5109073;27;20019;-71
2021/08/06 08:26:29;;;;;;;12.20;4.07;;;;;;;;;;5103636;27;20031;-71
2021/08/06 08:28:55;;;;;;;8.18;3.80;;;;;;;;;;5105023;27;20042;-71
2021/08/06 08:31:21;;;;;;;10.93;4.25;;;;;;;;;;5109613;27;20020;-71
2021/08/06 08:33:47;;;;;;;9.85;4.07;;;;;;;;;;5107232;27;20024;-67
2021/08/06 08:36:13;;;;;;;8.65;4.13;;;;;;;;;;5115458;27;20071;-71
2021/08/06 08:38:39;;;;;;;7.70;4.38;;;;;;;;;;5099233;28;20115;-71
2021/08/06 08:41:05;;;;;;;8.57;4.20;;;;;;;;;;5103488;27;20032;-69
2021/08/06 08:43:31;;;;;;;7.20;4.43;;;;;;;;;;5111580;27;20016;-70
2021/08/06 08:45:58;;;;;;;10.35;3.53;;;;;;;;;;5107608;27;20504;-70
2021/08/06 08:48:24;;;;;;;10.82;3.55;;;;;;;;;;5111645;27;20030;-71
2021/08/06 08:50:52;;;;;;;8.50;4.13;;;;;;;;;;5107054;27;20043;-72
2021/08/06 08:53:19;;;;;;;9.73;2.90;;;;;;;;;;5111570;27;20117;-71
2021/08/06 08:55:45;;;;;;;7.43;3.58;;;;;;;;;;5111291;27;20081;-71
2021/08/06 08:58:12;;;;;;;12.00;4.15;;;;;;;;;;5105183;27;20028;-72
2021/08/06 09:00:40;;;;;;;13.23;4.03;;;;;;;;;;5113303;27;20114;-69
2021/08/06 09:03:06;;;;;;;12.32;5.65;;;;;;;;;;5110739;27;20505;-69
2021/08/06 09:05:32;;;;;;;10.82;4.60;;;;;;;;;;5108131;27;20616;-68
2021/08/06 09:07:58;;;;;;;7.25;4.72;;;;;;;;;;5109396;27;20031;-68
2021/08/06 09:10:33;;;;;;;8.55;5.07;;;;;;;;;;5112888;27;20038;-69
2021/08/06 09:13:01;;;;;;;12.90;5.28;;;;;;;;;;5107480;27;20015;-69
2021/08/06 09:15:47;;;;;;;9.80;5.13;;;;;;;;;;5103381;27;20032;-70
2021/08/06 09:18:25;;;;;;;11.20;4.30;;;;;;;;;;5108325;27;20023;-68
2021/08/06 09:21:00;;;;;;;8.82;4.38;;;;;;;;;;5110929;27;20028;-68
2021/08/06 09:23:42;;;;;;;11.38;4.07;;;;;;;;;;5107903;27;20049;-70
2021/08/06 09:26:09;;;;;;;7.55;4.30;;;;;;;;;;5105561;27;20173;-69
2021/08/06 09:28:55;;;;;;;5.88;3.72;;;;;;;;;;5106896;28;20553;-71
2021/08/06 09:31:21;;;;;;;9.75;3.75;;;;;;;;;;5110224;28;20092;-70
2021/08/06 09:33:47;;;;;;;8.35;3.65;;;;;;;;;;5109852;28;20015;-68
2021/08/06 09:36:16;;;;;;;4.50;2.92;;;;;;;;;;5103328;28;20065;-68
2021/08/06 09:38:42;;;;;;;5.63;2.50;;;;;;;;;;5107882;28;20119;-68
2021/08/06 09:41:08;;;;;;;5.22;2.85;;;;;;;;;;5109625;27;20027;-69
2021/08/06 09:43:34;;;;;;;5.45;2.67;;;;;;;;;;5108973;28;20023;-71
2021/08/06 09:46:00;;;;;;;8.50;2.83;;;;;;;;;;5103877;28;20384;-70
2021/08/06 09:48:27;;;;;;;6.45;2.72;;;;;;;;;;5109921;28;20094;-71
2021/08/06 09:50:53;;;;;;;6.50;2.88;;;;;;;;;;5109547;28;20027;-70
2021/08/06 09:53:24;;;;;;;6.07;3.35;;;;;;;;;;5105763;28;20016;-71
2021/08/06 09:55:50;;;;;;;19.00;4.88;;;;;;;;;;5106028;28;20030;-71
2021/08/06 09:58:21;;;;;;;9.60;3.08;;;;;;;;;;5108147;28;20509;-71
2021/08/06 10:00:50;;;;;;;7.43;4.10;;;;;;;;;;5110632;28;20266;-71
2021/08/06 10:03:25;;;;;;;10.32;4.07;;;;;;;;;;5112308;27;20064;-71
2021/08/06 10:06:06;;;;;;;7.82;2.88;;;;;;;;;;5106840;28;20051;-70
2021/08/06 10:08:33;;;;;;;6.65;2.65;;;;;;;;;;5108551;28;20459;-71
2021/08/06 10:10:59;;;;;;;6.90;2.50;;;;;;;;;;5109877;28;20032;-71
2021/08/06 10:13:26;;;;;;;4.43;2.92;;;;;;;;;;5110241;28;20031;-71
2021/08/06 10:15:52;;;;;;;8.25;2.90;;;;;;;;;;5107879;28;20020;-70
2021/08/06 10:18:19;;;;;;;7.78;3.20;;;;;;;;;;5106735;28;20024;-69
2021/08/06 10:20:47;;;;;;;5.03;2.60;;;;;;;;;;5107354;28;20030;-71
2021/08/06 10:23:13;;;;;;;11.63;2.30;;;;;;;;;;5110152;28;20039;-70
2021/08/06 10:25:40;;;;;;;6.57;2.90;;;;;;;;;;5107929;28;20089;-69
2021/08/06 10:28:06;;;;;;;4.90;1.95;;;;;;;;;;5095035;28;20031;-70
2021/08/06 10:30:33;;;;;;;7.80;2.60;;;;;;;;;;5108488;28;20051;-70
2021/08/06 10:33:21;;;;;;;5.80;2.20;;;;;;;;;;5108659;28;20495;-70
2021/08/06 10:35:50;;;;;;;9.65;2.17;;;;;;;;;;5099587;28;20510;-69
2021/08/06 10:38:32;;;;;;;4.25;1.38;;;;;;;;;;5103887;28;20039;-69
2021/08/06 10:40:59;;;;;;;3.38;1.77;;;;;;;;;;5109437;28;20020;-71
2021/08/06 10:43:35;;;;;;;9.35;2.40;;;;;;;;;;5109121;28;20535;-69
2021/08/06 10:46:01;;;;;;;8.90;2.30;;;;;;;;;;5104649;28;20024;-70
2021/08/06 10:48:27;;;;;;;7.15;2.83;;;;;;;;;;5097552;28;20016;-70
2021/08/06 10:51:12;;;;;;;13.73;2.60;;;;;;;;;;5098873;28;20023;-69
2021/08/06 10:53:39;;;;;;;8.77;2.10;;;;;;;;;;5108398;28;20022;-69
2021/08/06 10:56:29;;;;;;;9.63;2.50;;;;;;;;;;5105365;28;20038;-68
2021/08/06 10:59:12;;;;;;;8.23;1.95;;;;;;;;;;5110093;28;20556;-70
2021/08/06 11:01:46;;;;;;;9.68;1.90;;;;;;;;;;5110525;28;20046;-69
2021/08/06 11:04:12;;;;;;;11.20;2.28;;;;;;;;;;5110217;28;20031;-70
2021/08/06 11:06:45;;;;;;;8.80;1.90;;;;;;;;;;5106334;28;20036;-69
2021/08/06 11:09:12;;;;;;;9.88;2.15;;;;;;;;;;5108726;28;20034;-73
2021/08/06 11:11:44;;;;;;;4.47;1.35;;;;;;;;;;5105171;28;20478;-72
2021/08/06 11:14:11;;;;;;;7.88;2.50;;;;;;;;;;5110116;28;20449;-69
2021/08/06 11:16:57;;;;;;;13.65;1.80;;;;;;;;;;5110194;28;20020;-70
2021/08/06 11:19:37;;;;;;;7.65;1.98;;;;;;;;;;5109225;28;20375;-70
2021/08/06 11:22:06;;;;;;;9.38;1.75;;;;;;;;;;5113232;28;20115;-69
2021/08/06 11:24:43;;;;;;;10.38;1.67;;;;;;;;;;5113230;28;20039;-68
2021/08/06 11:27:09;;;;;;;8.23;1.95;;;;;;;;;;5107463;28;20499;-68
2021/08/06 11:29:36;;;;;;;9.48;2.05;;;;;;;;;;5113198;28;20160;-68
2021/08/06 11:32:03;;;;;;;9.93;2.75;;;;;;;;;;5112751;28;20102;-68
2021/08/06 11:34:29;;;;;;;13.60;1.92;;;;;;;;;;5105422;28;20028;-71
2021/08/06 11:36:59;;;;;;;10.55;2.08;;;;;;;;;;5102727;28;20035;-69
2021/08/06 11:39:26;;;;;;;7.70;2.33;;;;;;;;;;5111631;28;20058;-67
2021/08/06 11:41:53;;;;;;;9.73;1.98;;;;;;;;;;5113166;28;20036;-69
2021/08/06 11:44:19;;;;;;;8.45;1.90;;;;;;;;;;5112604;28;20866;-69
2021/08/06 11:46:46;;;;;;;11.90;3.00;;;;;;;;;;5107204;28;20027;-69
2021/08/06 11:49:12;;;;;;;13.75;3.00;;;;;;;;;;5110993;28;20072;-69
2021/08/06 11:51:55;;;;;;;13.90;2.42;;;;;;;;;;5111269;28;20023;-70
2021/08/06 11:54:24;;;;;;;12.07;2.55;;;;;;;;;;5109035;28;20516;-69
2021/08/06 11:57:00;;;;;;;13.13;2.53;;;;;;;;;;5107847;28;20098;-69
2021/08/06 11:59:26;;;;;;;14.02;2.72;;;;;;;;;;5108176;28;20039;-71
2021/08/06 12:02:11;;;;;;;16.85;2.17;;;;;;;;;;5111567;28;20122;-71
2021/08/06 12:04:37;;;;;;;10.73;2.38;;;;;;;;;;5112393;28;20031;-69
2021/08/06 12:07:04;;;;;;;10.32;2.15;;;;;;;;;;5110046;28;20035;-69
2021/08/06 12:09:30;;;;;;;9.45;2.35;;;;;;;;;;5112795;28;20402;-68
2021/08/06 12:11:56;;;;;;;17.50;3.05;;;;;;;;;;5111870;28;20020;-70
2021/08/06 12:14:28;;;;;;;12.43;2.88;;;;;;;;;;5112512;28;20034;-69
2021/08/06 12:16:55;;;;;;;9.85;1.88;;;;;;;;;;5109228;27;20043;-69
2021/08/06 12:19:21;;;;;;;9.75;2.20;;;;;;;;;;5111621;28;20055;-69
2021/08/06 12:21:48;;;;;;;11.32;2.10;;;;;;;;;;5111901;28;20106;-70
2021/08/06 12:24:16;;;;;;;10.23;2.22;;;;;;;;;;5110153;28;20027;-69
2021/08/06 12:26:43;;;;;;;10.38;3.03;;;;;;;;;;5109047;28;20036;-70
2021/08/06 12:29:10;;;;;;;12.50;2.83;;;;;;;;;;5112154;28;20032;-69
2021/08/06 12:31:51;;;;;;;14.38;1.90;;;;;;;;;;5112057;28;20095;-73
2021/08/06 12:34:20;;;;;;;13.90;2.20;;;;;;;;;;5112318;28;20024;-70
2021/08/06 12:36:58;;;;;;;11.15;2.30;;;;;;;;;;5107203;28;20035;-69
2021/08/06 12:39:25;;;;;;;12.30;2.70;;;;;;;;;;5110012;28;20019;-70
2021/08/06 12:41:51;;;;;;;13.70;2.25;;;;;;;;;;5109951;28;20513;-70
2021/08/06 12:44:19;;;;;;;15.00;2.58;;;;;;;;;;5111237;28;20019;-68
2021/08/06 12:47:18;;;;;;;10.80;2.50;;;;;;;;;;5109494;28;20039;-69
2021/08/06 12:49:44;;;;;;;12.45;2.80;;;;;;;;;;5098886;28;20035;-68
2021/08/06 12:52:10;;;;;;;19.33;3.40;;;;;;;;;;5110003;28;20456;-68
2021/08/06 12:54:46;;;;;;;10.13;2.42;;;;;;;;;;5106635;28;20020;-70
2021/08/06 12:57:13;;;;;;;13.93;2.92;;;;;;;;;;5107367;28;20497;-70
2021/08/06 12:59:42;;;;;;;12.05;2.63;;;;;;;;;;5111234;28;20032;-77
2021/08/06 13:02:12;;;;;;;10.20;2.53;;;;;;;;;;5109176;28;20055;-68
2021/08/06 13:04:38;;;;;;;8.73;2.10;;;;;;;;;;5110296;28;20050;-68
2021/08/06 13:07:06;;;;;;;12.13;2.55;;;;;;;;;;5103285;27;20028;-68
2021/08/06 13:09:38;;;;;;;11.45;2.85;;;;;;;;;;5109886;28;20510;-68
2021/08/06 13:12:04;;;;;;;;;;;;;;;;;;5110801;28;20058;-69
2021/08/06 13:14:30;;;;;;;21.52;3.85;;;;;;;;;;5111502;28;19947;-67
2021/08/06 13:16:56;;;;;;;14.90;4.07;;;;;;;;;;5107143;28;20050;-67
2021/08/06 13:19:22;;;;;;;21.17;4.18;;;;;;;;;;5110802;28;20031;-68
2021/08/06 13:21:58;;;;;;;14.13;3.63;;;;;;;;;;5111406;28;20039;-67
2021/08/06 13:24:25;;;;;;;15.95;4.38;;;;;;;;;;5110036;28;20035;-68
2021/08/06 13:26:51;;;;;;;11.98;3.50;;;;;;;;;;5098747;28;20063;-69
2021/08/06 13:29:17;;;;;;;12.75;2.63;;;;;;;;;;5103374;28;20429;-70
2021/08/06 13:31:43;;;;;;;16.80;4.55;;;;;;;;;;5109821;27;20019;-69
2021/08/06 13:34:09;;;;;;;19.08;3.63;;;;;;;;;;5103698;28;20085;-69
2021/08/06 13:36:35;;;;;;;17.50;5.03;;;;;;;;;;5105487;27;20032;-69
2021/08/06 13:39:01;;;;;;;23.77;5.45;;;;;;;;;;5107751;28;20034;-69
2021/08/06 13:41:27;;;;;;;24.27;4.95;;;;;;;;;;5107221;28;20414;-71
2021/08/06 13:43:53;;;;;;;16.05;4.35;;;;;;;;;;5099692;28;20601;-67
2021/08/06 13:46:19;;;;;;;16.75;4.25;;;;;;;;;;5094752;28;20097;-69
2021/08/06 13:48:45;;;;;;;18.88;4.95;;;;;;;;;;5087722;28;20023;-69
2021/08/06 13:51:11;;;;;;;17.23;4.97;;;;;;;;;;5098315;28;20020;-68
2021/08/06 13:53:37;;;;;;;12.30;3.90;;;;;;;;;;5105298;28;20020;-68
2021/08/06 13:56:04;;;;;;;18.02;4.55;;;;;;;;;;5095796;28;20038;-69
2021/08/06 13:58:30;;;;;;;23.38;4.18;;;;;;;;;;5105031;28;20040;-68
2021/08/06 14:00:56;;;;;;;19.63;4.60;;;;;;;;;;5108322;28;20027;-67
2021/08/06 14:03:22;;;;;;;20.92;4.55;;;;;;;;;;5108186;28;20051;-69
2021/08/06 14:05:48;;;;;;;16.73;3.78;;;;;;;;;;5106995;28;20515;-69
2021/08/06 14:08:15;;;;;;;16.88;4.97;;;;;;;;;;5105074;28;20427;-69
2021/08/06 14:10:41;;;;;;;23.25;3.75;;;;;;;;;;5099402;28;20482;-67
2021/08/06 14:13:08;;;;;;;23.05;4.57;;;;;;;;;;5109843;28;20028;-69
2021/08/06 14:15:34;;;;;;;19.83;3.83;;;;;;;;;;5097627;28;20020;-67
2021/08/06 14:18:00;;;;;;;17.75;4.78;;;;;;;;;;5099658;28;20027;-65
2021/08/06 14:20:26;;;;;;;20.10;4.03;;;;;;;;;;5098982;28;20027;-73
2021/08/06 14:22:52;;;;;;;20.52;4.63;;;;;;;;;;5096592;28;20036;-66
2021/08/06 14:25:19;;;;;;;20.83;4.90;;;;;;;;;;5095780;28;20047;-73
2021/08/06 14:27:45;;;;;;;27.27;3.55;;;;;;;;;;5102389;28;20016;-68
2021/08/06 14:30:11;;;;;;;17.05;3.58;;;;;;;;;;5100028;28;20032;-67
2021/08/06 14:32:38;;;;;;;22.25;4.28;;;;;;;;;;5095449;28;20035;-66
2021/08/06 14:35:04;;;;;;;19.08;4.65;;;;;;;;;;5097638;28;20024;-67
2021/08/06 14:37:31;;;;;;;19.50;4.40;;;;;;;;;;5101199;28;20038;-67